sensor_id;sensor_type;location;lat;lon;timestamp;temperature;humidity
16901;DHT22;8567;52.540;6.434;2024-02-04T00:01:45;19.10;56.40
16901;DHT22;8567;52.540;6.434;2024-02-04T00:04:12;19.10;56.50
16901;DHT22;8567;52.540;6.434;2024-02-04T00:06:39;19.10;56.40
16901;DHT22;8567;52.540;6.434;2024-02-04T00:09:06;19.00;56.40
16901;DHT22;8567;52.540;6.434;2024-02-04T00:11:34;19.10;56.40
16901;DHT22;8567;52.540;6.434;2024-02-04T00:14:01;19.10;56.70
16901;DHT22;8567;52.540;6.434;2024-02-04T00:16:28;19.10;56.30
16901;DHT22;8567;52.540;6.434;2024-02-04T00:18:57;19.10;56.40
16901;DHT22;8567;52.540;6.434;2024-02-04T00:21:24;19.10;56.50
16901;DHT22;8567;52.540;6.434;2024-02-04T00:23:50;19.10;56.60
16901;DHT22;8567;52.540;6.434;2024-02-04T00:26:17;19.10;56.40
16901;DHT22;8567;52.540;6.434;2024-02-04T00:28:44;19.10;56.70
16901;DHT22;8567;52.540;6.434;2024-02-04T00:31:11;19.10;56.40
16901;DHT22;8567;52.540;6.434;2024-02-04T00:33:37;19.10;56.30
16901;DHT22;8567;52.540;6.434;2024-02-04T00:36:06;19.10;56.50
16901;DHT22;8567;52.540;6.434;2024-02-04T00:38:33;19.10;56.30
16901;DHT22;8567;52.540;6.434;2024-02-04T00:41:00;19.10;56.40
16901;DHT22;8567;52.540;6.434;2024-02-04T00:43:27;19.10;56.70
16901;DHT22;8567;52.540;6.434;2024-02-04T00:45:53;19.10;56.30
16901;DHT22;8567;52.540;6.434;2024-02-04T00:48:22;19.10;56.20
16901;DHT22;8567;52.540;6.434;2024-02-04T00:50:48;19.10;56.30
16901;DHT22;8567;52.540;6.434;2024-02-04T00:53:17;19.10;56.10
16901;DHT22;8567;52.540;6.434;2024-02-04T00:55:43;19.10;56.30
16901;DHT22;8567;52.540;6.434;2024-02-04T00:58:10;19.10;56.20
16901;DHT22;8567;52.540;6.434;2024-02-04T01:00:37;19.10;56.20
16901;DHT22;8567;52.540;6.434;2024-02-04T01:03:04;19.10;56.20
16901;DHT22;8567;52.540;6.434;2024-02-04T01:05:31;19.10;56.20
16901;DHT22;8567;52.540;6.434;2024-02-04T01:07:57;19.10;56.20
16901;DHT22;8567;52.540;6.434;2024-02-04T01:10:26;19.10;56.20
16901;DHT22;8567;52.540;6.434;2024-02-04T01:12:53;19.10;56.20
16901;DHT22;8567;52.540;6.434;2024-02-04T01:15:20;19.10;56.10
16901;DHT22;8567;52.540;6.434;2024-02-04T01:17:47;19.10;56.20
16901;DHT22;8567;52.540;6.434;2024-02-04T01:20:13;19.10;56.10
16901;DHT22;8567;52.540;6.434;2024-02-04T01:22:40;19.10;56.10
16901;DHT22;8567;52.540;6.434;2024-02-04T01:25:08;19.10;56.00
16901;DHT22;8567;52.540;6.434;2024-02-04T01:27:36;19.10;56.00
16901;DHT22;8567;52.540;6.434;2024-02-04T01:30:03;19.10;55.90
16901;DHT22;8567;52.540;6.434;2024-02-04T01:32:30;19.10;55.90
16901;DHT22;8567;52.540;6.434;2024-02-04T01:34:57;19.10;56.20
16901;DHT22;8567;52.540;6.434;2024-02-04T01:37:24;19.10;56.00
16901;DHT22;8567;52.540;6.434;2024-02-04T01:39:51;19.10;55.90
16901;DHT22;8567;52.540;6.434;2024-02-04T01:42:17;19.10;56.00
16901;DHT22;8567;52.540;6.434;2024-02-04T01:44:46;19.10;56.10
16901;DHT22;8567;52.540;6.434;2024-02-04T01:47:13;19.10;56.00
16901;DHT22;8567;52.540;6.434;2024-02-04T01:49:40;19.10;56.00
16901;DHT22;8567;52.540;6.434;2024-02-04T01:52:07;19.10;56.00
16901;DHT22;8567;52.540;6.434;2024-02-04T01:54:34;19.10;56.00
16901;DHT22;8567;52.540;6.434;2024-02-04T01:57:04;19.10;55.90
16901;DHT22;8567;52.540;6.434;2024-02-04T01:59:31;19.10;55.90
16901;DHT22;8567;52.540;6.434;2024-02-04T02:02:00;19.10;55.90
16901;DHT22;8567;52.540;6.434;2024-02-04T02:04:28;19.10;55.90
16901;DHT22;8567;52.540;6.434;2024-02-04T02:06:55;19.10;55.90
16901;DHT22;8567;52.540;6.434;2024-02-04T02:09:24;19.10;56.00
16901;DHT22;8567;52.540;6.434;2024-02-04T02:11:57;19.10;56.00
16901;DHT22;8567;52.540;6.434;2024-02-04T02:14:31;19.10;56.00
16901;DHT22;8567;52.540;6.434;2024-02-04T02:17:04;19.10;56.00
16901;DHT22;8567;52.540;6.434;2024-02-04T02:19:46;19.10;56.10
16901;DHT22;8567;52.540;6.434;2024-02-04T02:22:25;19.10;55.90
16901;DHT22;8567;52.540;6.434;2024-02-04T02:24:56;19.10;55.90
16901;DHT22;8567;52.540;6.434;2024-02-04T02:27:24;19.10;55.90
16901;DHT22;8567;52.540;6.434;2024-02-04T02:29:51;19.10;55.90
16901;DHT22;8567;52.540;6.434;2024-02-04T02:32:18;19.10;55.90
16901;DHT22;8567;52.540;6.434;2024-02-04T02:34:46;19.10;55.80
16901;DHT22;8567;52.540;6.434;2024-02-04T02:37:20;19.10;55.80
16901;DHT22;8567;52.540;6.434;2024-02-04T02:39:52;19.10;55.90
16901;DHT22;8567;52.540;6.434;2024-02-04T02:42:25;19.10;55.80
16901;DHT22;8567;52.540;6.434;2024-02-04T02:44:53;19.10;55.80
16901;DHT22;8567;52.540;6.434;2024-02-04T02:47:21;19.10;55.80
16901;DHT22;8567;52.540;6.434;2024-02-04T02:49:51;19.10;55.80
16901;DHT22;8567;52.540;6.434;2024-02-04T02:52:18;19.10;55.80
16901;DHT22;8567;52.540;6.434;2024-02-04T02:54:45;19.10;55.80
16901;DHT22;8567;52.540;6.434;2024-02-04T02:57:11;19.10;55.70
16901;DHT22;8567;52.540;6.434;2024-02-04T02:59:40;19.10;55.80
16901;DHT22;8567;52.540;6.434;2024-02-04T03:02:06;19.10;55.80
16901;DHT22;8567;52.540;6.434;2024-02-04T03:04:33;19.10;55.60
16901;DHT22;8567;52.540;6.434;2024-02-04T03:07:00;19.10;55.60
16901;DHT22;8567;52.540;6.434;2024-02-04T03:09:27;19.10;55.50
16901;DHT22;8567;52.540;6.434;2024-02-04T03:11:53;19.10;55.50
16901;DHT22;8567;52.540;6.434;2024-02-04T03:14:20;19.10;55.40
16901;DHT22;8567;52.540;6.434;2024-02-04T03:16:48;19.10;55.40
16901;DHT22;8567;52.540;6.434;2024-02-04T03:19:15;19.10;55.40
16901;DHT22;8567;52.540;6.434;2024-02-04T03:21:42;19.10;55.40
16901;DHT22;8567;52.540;6.434;2024-02-04T03:24:09;19.10;55.40
16901;DHT22;8567;52.540;6.434;2024-02-04T03:26:35;19.10;55.40
16901;DHT22;8567;52.540;6.434;2024-02-04T03:29:02;19.10;55.40
16901;DHT22;8567;52.540;6.434;2024-02-04T03:31:30;19.10;55.40
16901;DHT22;8567;52.540;6.434;2024-02-04T03:33:59;19.10;55.30
16901;DHT22;8567;52.540;6.434;2024-02-04T03:36:26;19.10;55.30
16901;DHT22;8567;52.540;6.434;2024-02-04T03:38:53;19.10;55.10
16901;DHT22;8567;52.540;6.434;2024-02-04T03:41:19;19.10;55.20
16901;DHT22;8567;52.540;6.434;2024-02-04T03:43:46;19.10;55.30
16901;DHT22;8567;52.540;6.434;2024-02-04T03:46:13;19.10;55.20
16901;DHT22;8567;52.540;6.434;2024-02-04T03:48:41;19.10;55.10
16901;DHT22;8567;52.540;6.434;2024-02-04T03:51:15;19.10;55.10
16901;DHT22;8567;52.540;6.434;2024-02-04T03:53:42;19.10;55.20
16901;DHT22;8567;52.540;6.434;2024-02-04T03:56:09;19.10;55.10
16901;DHT22;8567;52.540;6.434;2024-02-04T03:58:36;19.10;55.00
16901;DHT22;8567;52.540;6.434;2024-02-04T04:01:03;19.10;55.10
16901;DHT22;8567;52.540;6.434;2024-02-04T04:03:30;19.10;55.00
16901;DHT22;8567;52.540;6.434;2024-02-04T04:05:57;19.10;55.00
16901;DHT22;8567;52.540;6.434;2024-02-04T04:08:25;19.10;54.90
16901;DHT22;8567;52.540;6.434;2024-02-04T04:10:51;19.10;54.90
16901;DHT22;8567;52.540;6.434;2024-02-04T04:13:18;19.10;54.90
16901;DHT22;8567;52.540;6.434;2024-02-04T04:15:45;19.10;54.90
16901;DHT22;8567;52.540;6.434;2024-02-04T04:18:12;19.10;54.90
16901;DHT22;8567;52.540;6.434;2024-02-04T04:20:39;19.10;54.80
16901;DHT22;8567;52.540;6.434;2024-02-04T04:23:06;19.10;54.80
16901;DHT22;8567;52.540;6.434;2024-02-04T04:25:34;19.10;54.80
16901;DHT22;8567;52.540;6.434;2024-02-04T04:28:01;19.10;54.90
16901;DHT22;8567;52.540;6.434;2024-02-04T04:30:27;19.10;54.80
16901;DHT22;8567;52.540;6.434;2024-02-04T04:32:56;19.10;54.70
16901;DHT22;8567;52.540;6.434;2024-02-04T04:35:23;19.10;54.70
16901;DHT22;8567;52.540;6.434;2024-02-04T04:37:50;19.10;54.80
16901;DHT22;8567;52.540;6.434;2024-02-04T04:40:18;19.10;54.70
16901;DHT22;8567;52.540;6.434;2024-02-04T04:42:46;19.10;54.60
16901;DHT22;8567;52.540;6.434;2024-02-04T04:45:13;19.10;54.50
16901;DHT22;8567;52.540;6.434;2024-02-04T04:47:40;19.10;54.70
16901;DHT22;8567;52.540;6.434;2024-02-04T04:50:07;19.10;54.60
16901;DHT22;8567;52.540;6.434;2024-02-04T04:52:34;19.10;54.50
16901;DHT22;8567;52.540;6.434;2024-02-04T04:55:01;19.10;54.60
16901;DHT22;8567;52.540;6.434;2024-02-04T04:57:28;19.10;54.50
16901;DHT22;8567;52.540;6.434;2024-02-04T04:59:56;19.00;54.50
16901;DHT22;8567;52.540;6.434;2024-02-04T05:02:24;19.10;54.40
16901;DHT22;8567;52.540;6.434;2024-02-04T05:04:51;19.10;54.30
16901;DHT22;8567;52.540;6.434;2024-02-04T05:07:17;19.10;54.40
16901;DHT22;8567;52.540;6.434;2024-02-04T05:09:44;19.10;54.30
16901;DHT22;8567;52.540;6.434;2024-02-04T05:12:11;19.10;54.20
16901;DHT22;8567;52.540;6.434;2024-02-04T05:14:38;19.10;54.20
16901;DHT22;8567;52.540;6.434;2024-02-04T05:17:06;19.10;54.30
16901;DHT22;8567;52.540;6.434;2024-02-04T05:19:35;19.10;54.10
16901;DHT22;8567;52.540;6.434;2024-02-04T05:22:02;19.10;54.10
16901;DHT22;8567;52.540;6.434;2024-02-04T05:24:29;19.10;54.10
16901;DHT22;8567;52.540;6.434;2024-02-04T05:26:55;19.10;54.10
16901;DHT22;8567;52.540;6.434;2024-02-04T05:29:22;19.10;54.10
16901;DHT22;8567;52.540;6.434;2024-02-04T05:31:49;19.10;54.10
16901;DHT22;8567;52.540;6.434;2024-02-04T05:34:18;19.10;54.10
16901;DHT22;8567;52.540;6.434;2024-02-04T05:36:44;19.00;54.10
16901;DHT22;8567;52.540;6.434;2024-02-04T05:39:11;19.00;54.10
16901;DHT22;8567;52.540;6.434;2024-02-04T05:41:39;19.00;54.10
16901;DHT22;8567;52.540;6.434;2024-02-04T05:44:07;19.10;54.00
16901;DHT22;8567;52.540;6.434;2024-02-04T05:46:34;19.10;54.00
16901;DHT22;8567;52.540;6.434;2024-02-04T05:49:01;19.00;54.00
16901;DHT22;8567;52.540;6.434;2024-02-04T05:51:31;19.00;54.00
16901;DHT22;8567;52.540;6.434;2024-02-04T05:53:58;19.00;53.90
16901;DHT22;8567;52.540;6.434;2024-02-04T05:56:25;19.00;53.80
16901;DHT22;8567;52.540;6.434;2024-02-04T05:58:52;19.10;53.80
16901;DHT22;8567;52.540;6.434;2024-02-04T06:01:18;19.00;53.80
16901;DHT22;8567;52.540;6.434;2024-02-04T06:03:45;19.00;53.80
16901;DHT22;8567;52.540;6.434;2024-02-04T06:06:14;19.00;53.70
16901;DHT22;8567;52.540;6.434;2024-02-04T06:08:43;19.00;53.70
16901;DHT22;8567;52.540;6.434;2024-02-04T06:11:10;19.00;53.60
16901;DHT22;8567;52.540;6.434;2024-02-04T06:13:39;19.00;53.60
16901;DHT22;8567;52.540;6.434;2024-02-04T06:16:06;19.00;53.60
16901;DHT22;8567;52.540;6.434;2024-02-04T06:18:33;19.00;53.50
16901;DHT22;8567;52.540;6.434;2024-02-04T06:21:00;19.00;53.50
16901;DHT22;8567;52.540;6.434;2024-02-04T06:23:27;19.00;53.50
16901;DHT22;8567;52.540;6.434;2024-02-04T06:25:55;19.00;53.50
16901;DHT22;8567;52.540;6.434;2024-02-04T06:28:22;19.00;53.50
16901;DHT22;8567;52.540;6.434;2024-02-04T06:30:49;19.00;53.50
16901;DHT22;8567;52.540;6.434;2024-02-04T06:33:16;19.00;53.40
16901;DHT22;8567;52.540;6.434;2024-02-04T06:35:43;19.00;53.40
16901;DHT22;8567;52.540;6.434;2024-02-04T06:38:09;19.00;53.40
16901;DHT22;8567;52.540;6.434;2024-02-04T06:40:36;19.00;53.30
16901;DHT22;8567;52.540;6.434;2024-02-04T06:43:04;19.00;53.30
16901;DHT22;8567;52.540;6.434;2024-02-04T06:45:31;19.00;53.20
16901;DHT22;8567;52.540;6.434;2024-02-04T06:47:58;19.00;53.00
16901;DHT22;8567;52.540;6.434;2024-02-04T06:50:25;19.00;53.10
16901;DHT22;8567;52.540;6.434;2024-02-04T06:52:52;19.00;53.10
16901;DHT22;8567;52.540;6.434;2024-02-04T06:55:18;19.00;53.10
16901;DHT22;8567;52.540;6.434;2024-02-04T06:57:45;19.00;53.10
16901;DHT22;8567;52.540;6.434;2024-02-04T07:00:14;19.00;53.10
16901;DHT22;8567;52.540;6.434;2024-02-04T07:02:41;19.00;53.10
16901;DHT22;8567;52.540;6.434;2024-02-04T07:05:08;19.00;53.10
16901;DHT22;8567;52.540;6.434;2024-02-04T07:07:36;19.00;52.90
16901;DHT22;8567;52.540;6.434;2024-02-04T07:10:03;19.00;52.90
16901;DHT22;8567;52.540;6.434;2024-02-04T07:12:30;19.00;52.90
16901;DHT22;8567;52.540;6.434;2024-02-04T07:14:57;19.00;52.80
16901;DHT22;8567;52.540;6.434;2024-02-04T07:17:25;19.00;52.70
16901;DHT22;8567;52.540;6.434;2024-02-04T07:19:52;19.00;52.70
16901;DHT22;8567;52.540;6.434;2024-02-04T07:22:19;19.00;52.70
16901;DHT22;8567;52.540;6.434;2024-02-04T07:24:45;19.00;52.60
16901;DHT22;8567;52.540;6.434;2024-02-04T07:27:12;19.00;52.70
16901;DHT22;8567;52.540;6.434;2024-02-04T07:29:39;19.00;52.70
16901;DHT22;8567;52.540;6.434;2024-02-04T07:32:06;19.00;52.70
16901;DHT22;8567;52.540;6.434;2024-02-04T07:34:34;19.00;52.50
16901;DHT22;8567;52.540;6.434;2024-02-04T07:37:02;19.00;52.40
16901;DHT22;8567;52.540;6.434;2024-02-04T07:39:29;19.00;52.30
16901;DHT22;8567;52.540;6.434;2024-02-04T07:41:57;19.00;52.20
16901;DHT22;8567;52.540;6.434;2024-02-04T07:44:25;19.00;52.40
16901;DHT22;8567;52.540;6.434;2024-02-04T07:46:52;19.00;52.20
16901;DHT22;8567;52.540;6.434;2024-02-04T07:49:19;19.00;52.20
16901;DHT22;8567;52.540;6.434;2024-02-04T07:51:47;19.00;52.20
16901;DHT22;8567;52.540;6.434;2024-02-04T07:54:14;19.00;52.10
16901;DHT22;8567;52.540;6.434;2024-02-04T07:56:41;19.00;52.10
16901;DHT22;8567;52.540;6.434;2024-02-04T07:59:07;19.00;52.10
16901;DHT22;8567;52.540;6.434;2024-02-04T08:01:34;19.00;52.10
16901;DHT22;8567;52.540;6.434;2024-02-04T08:04:01;19.00;52.00
16901;DHT22;8567;52.540;6.434;2024-02-04T08:06:29;19.00;51.90
16901;DHT22;8567;52.540;6.434;2024-02-04T08:08:57;19.00;51.80
16901;DHT22;8567;52.540;6.434;2024-02-04T08:11:24;19.00;51.80
16901;DHT22;8567;52.540;6.434;2024-02-04T08:13:50;18.90;51.70
16901;DHT22;8567;52.540;6.434;2024-02-04T08:16:17;18.90;51.90
16901;DHT22;8567;52.540;6.434;2024-02-04T08:18:44;19.00;51.90
16901;DHT22;8567;52.540;6.434;2024-02-04T08:21:11;19.00;52.00
16901;DHT22;8567;52.540;6.434;2024-02-04T08:23:38;18.90;52.00
16901;DHT22;8567;52.540;6.434;2024-02-04T08:26:07;19.00;52.00
16901;DHT22;8567;52.540;6.434;2024-02-04T08:28:34;19.00;51.90
16901;DHT22;8567;52.540;6.434;2024-02-04T08:31:01;19.00;51.90
16901;DHT22;8567;52.540;6.434;2024-02-04T08:33:28;18.90;51.90
16901;DHT22;8567;52.540;6.434;2024-02-04T08:35:55;19.00;51.90
16901;DHT22;8567;52.540;6.434;2024-02-04T08:38:21;19.00;51.90
16901;DHT22;8567;52.540;6.434;2024-02-04T08:40:48;19.00;52.00
16901;DHT22;8567;52.540;6.434;2024-02-04T08:43:16;19.00;52.10
16901;DHT22;8567;52.540;6.434;2024-02-04T08:45:43;19.00;52.00
16901;DHT22;8567;52.540;6.434;2024-02-04T08:48:10;19.00;52.00
16901;DHT22;8567;52.540;6.434;2024-02-04T08:50:37;19.00;52.10
16901;DHT22;8567;52.540;6.434;2024-02-04T08:53:04;19.00;52.10
16901;DHT22;8567;52.540;6.434;2024-02-04T08:55:30;19.00;52.10
16901;DHT22;8567;52.540;6.434;2024-02-04T08:57:57;19.00;52.10
16901;DHT22;8567;52.540;6.434;2024-02-04T09:00:25;19.00;52.00
16901;DHT22;8567;52.540;6.434;2024-02-04T09:02:52;19.00;52.00
16901;DHT22;8567;52.540;6.434;2024-02-04T09:05:19;19.00;51.90
16901;DHT22;8567;52.540;6.434;2024-02-04T09:07:46;19.00;51.80
16901;DHT22;8567;52.540;6.434;2024-02-04T09:10:13;18.90;52.10
16901;DHT22;8567;52.540;6.434;2024-02-04T09:12:39;19.00;52.00
16901;DHT22;8567;52.540;6.434;2024-02-04T09:15:07;19.00;52.00
16901;DHT22;8567;52.540;6.434;2024-02-04T09:17:35;19.00;51.70
16901;DHT22;8567;52.540;6.434;2024-02-04T09:20:02;19.00;52.20
16901;DHT22;8567;52.540;6.434;2024-02-04T09:22:30;19.00;52.60
16901;DHT22;8567;52.540;6.434;2024-02-04T09:24:57;19.00;52.50
16901;DHT22;8567;52.540;6.434;2024-02-04T09:27:24;18.90;52.40
16901;DHT22;8567;52.540;6.434;2024-02-04T09:29:51;19.00;54.00
16901;DHT22;8567;52.540;6.434;2024-02-04T09:32:17;19.00;55.10
16901;DHT22;8567;52.540;6.434;2024-02-04T09:34:45;19.00;55.50
16901;DHT22;8567;52.540;6.434;2024-02-04T09:37:12;19.00;57.10
16901;DHT22;8567;52.540;6.434;2024-02-04T09:39:39;19.00;56.90
16901;DHT22;8567;52.540;6.434;2024-02-04T09:42:06;19.00;56.20
16901;DHT22;8567;52.540;6.434;2024-02-04T09:44:33;19.00;56.10
16901;DHT22;8567;52.540;6.434;2024-02-04T09:47:01;19.00;55.80
16901;DHT22;8567;52.540;6.434;2024-02-04T09:49:27;19.00;55.50
16901;DHT22;8567;52.540;6.434;2024-02-04T09:51:59;19.00;55.60
16901;DHT22;8567;52.540;6.434;2024-02-04T09:54:27;19.00;55.60
16901;DHT22;8567;52.540;6.434;2024-02-04T09:56:55;19.10;55.70
16901;DHT22;8567;52.540;6.434;2024-02-04T09:59:23;19.00;55.60
16901;DHT22;8567;52.540;6.434;2024-02-04T10:01:51;19.00;55.40
16901;DHT22;8567;52.540;6.434;2024-02-04T10:04:18;19.10;55.30
16901;DHT22;8567;52.540;6.434;2024-02-04T10:06:45;19.00;55.20
16901;DHT22;8567;52.540;6.434;2024-02-04T10:09:13;19.00;55.00
16901;DHT22;8567;52.540;6.434;2024-02-04T10:11:40;19.00;55.10
16901;DHT22;8567;52.540;6.434;2024-02-04T10:14:06;19.10;54.70
16901;DHT22;8567;52.540;6.434;2024-02-04T10:16:35;19.10;54.40
16901;DHT22;8567;52.540;6.434;2024-02-04T10:19:02;19.10;54.40
16901;DHT22;8567;52.540;6.434;2024-02-04T10:21:29;19.10;54.60
16901;DHT22;8567;52.540;6.434;2024-02-04T10:23:56;19.10;54.70
16901;DHT22;8567;52.540;6.434;2024-02-04T10:26:28;19.10;54.90
16901;DHT22;8567;52.540;6.434;2024-02-04T10:28:57;19.10;54.80
16901;DHT22;8567;52.540;6.434;2024-02-04T10:31:25;19.10;54.80
16901;DHT22;8567;52.540;6.434;2024-02-04T10:33:52;19.10;54.80
16901;DHT22;8567;52.540;6.434;2024-02-04T10:36:19;19.10;54.60
16901;DHT22;8567;52.540;6.434;2024-02-04T10:38:46;19.10;54.50
16901;DHT22;8567;52.540;6.434;2024-02-04T10:41:15;19.10;54.30
16901;DHT22;8567;52.540;6.434;2024-02-04T10:43:44;19.10;54.20
16901;DHT22;8567;52.540;6.434;2024-02-04T10:46:16;19.10;54.10
16901;DHT22;8567;52.540;6.434;2024-02-04T10:48:48;19.10;54.00
16901;DHT22;8567;52.540;6.434;2024-02-04T10:51:16;19.00;54.00
16901;DHT22;8567;52.540;6.434;2024-02-04T10:53:45;19.10;53.90
16901;DHT22;8567;52.540;6.434;2024-02-04T10:56:14;19.00;53.70
16901;DHT22;8567;52.540;6.434;2024-02-04T10:58:45;19.00;53.80
16901;DHT22;8567;52.540;6.434;2024-02-04T11:01:13;19.00;53.60
16901;DHT22;8567;52.540;6.434;2024-02-04T11:03:41;19.00;53.60
16901;DHT22;8567;52.540;6.434;2024-02-04T11:06:08;19.00;53.60
16901;DHT22;8567;52.540;6.434;2024-02-04T11:08:38;19.00;53.50
16901;DHT22;8567;52.540;6.434;2024-02-04T11:11:05;19.00;53.50
16901;DHT22;8567;52.540;6.434;2024-02-04T11:13:32;19.00;53.40
16901;DHT22;8567;52.540;6.434;2024-02-04T11:16:06;19.00;53.30
16901;DHT22;8567;52.540;6.434;2024-02-04T11:18:50;19.00;53.30
16901;DHT22;8567;52.540;6.434;2024-02-04T11:21:41;19.00;53.10
16901;DHT22;8567;52.540;6.434;2024-02-04T11:24:22;19.00;53.30
16901;DHT22;8567;52.540;6.434;2024-02-04T11:26:53;19.00;53.20
16901;DHT22;8567;52.540;6.434;2024-02-04T11:29:20;19.00;53.00
16901;DHT22;8567;52.540;6.434;2024-02-04T11:31:49;19.00;53.20
16901;DHT22;8567;52.540;6.434;2024-02-04T11:34:16;19.00;53.20
16901;DHT22;8567;52.540;6.434;2024-02-04T11:36:43;19.00;53.40
16901;DHT22;8567;52.540;6.434;2024-02-04T11:39:13;19.00;53.40
16901;DHT22;8567;52.540;6.434;2024-02-04T11:41:50;19.00;53.30
16901;DHT22;8567;52.540;6.434;2024-02-04T11:44:20;19.00;53.20
16901;DHT22;8567;52.540;6.434;2024-02-04T11:46:49;19.00;53.30
16901;DHT22;8567;52.540;6.434;2024-02-04T11:49:16;19.00;53.20
16901;DHT22;8567;52.540;6.434;2024-02-04T11:51:46;19.00;53.20
16901;DHT22;8567;52.540;6.434;2024-02-04T11:54:15;19.00;53.10
16901;DHT22;8567;52.540;6.434;2024-02-04T11:56:44;19.00;53.00
16901;DHT22;8567;52.540;6.434;2024-02-04T11:59:12;19.00;53.00
16901;DHT22;8567;52.540;6.434;2024-02-04T12:01:39;19.00;52.90
16901;DHT22;8567;52.540;6.434;2024-02-04T12:04:12;19.00;52.90
16901;DHT22;8567;52.540;6.434;2024-02-04T12:06:40;19.00;52.90
16901;DHT22;8567;52.540;6.434;2024-02-04T12:09:08;19.00;52.90
16901;DHT22;8567;52.540;6.434;2024-02-04T12:11:36;19.00;52.80
16901;DHT22;8567;52.540;6.434;2024-02-04T12:14:05;19.00;52.70
16901;DHT22;8567;52.540;6.434;2024-02-04T12:16:34;19.00;52.70
16901;DHT22;8567;52.540;6.434;2024-02-04T12:19:01;19.00;52.60
16901;DHT22;8567;52.540;6.434;2024-02-04T12:21:30;19.00;52.70
16901;DHT22;8567;52.540;6.434;2024-02-04T12:23:58;19.00;52.50
16901;DHT22;8567;52.540;6.434;2024-02-04T12:26:25;19.00;52.40
16901;DHT22;8567;52.540;6.434;2024-02-04T12:28:52;19.00;52.50
16901;DHT22;8567;52.540;6.434;2024-02-04T12:31:20;19.10;52.50
16901;DHT22;8567;52.540;6.434;2024-02-04T12:33:55;19.10;52.50
16901;DHT22;8567;52.540;6.434;2024-02-04T12:36:24;19.10;52.60
16901;DHT22;8567;52.540;6.434;2024-02-04T12:38:54;19.00;52.50
16901;DHT22;8567;52.540;6.434;2024-02-04T12:41:21;19.00;52.40
16901;DHT22;8567;52.540;6.434;2024-02-04T12:43:51;19.10;52.30
16901;DHT22;8567;52.540;6.434;2024-02-04T12:46:18;19.00;52.40
16901;DHT22;8567;52.540;6.434;2024-02-04T12:48:50;19.00;52.30
16901;DHT22;8567;52.540;6.434;2024-02-04T12:51:23;19.00;52.30
16901;DHT22;8567;52.540;6.434;2024-02-04T12:53:50;19.00;52.40
16901;DHT22;8567;52.540;6.434;2024-02-04T12:56:18;19.00;52.30
16901;DHT22;8567;52.540;6.434;2024-02-04T12:58:45;19.00;52.30
16901;DHT22;8567;52.540;6.434;2024-02-04T13:01:12;19.00;52.30
16901;DHT22;8567;52.540;6.434;2024-02-04T13:03:39;19.00;52.40
16901;DHT22;8567;52.540;6.434;2024-02-04T13:06:06;19.00;52.40
16901;DHT22;8567;52.540;6.434;2024-02-04T13:08:33;19.00;52.40
16901;DHT22;8567;52.540;6.434;2024-02-04T13:11:00;19.10;52.30
16901;DHT22;8567;52.540;6.434;2024-02-04T13:13:29;19.00;52.40
16901;DHT22;8567;52.540;6.434;2024-02-04T13:15:56;19.00;52.40
16901;DHT22;8567;52.540;6.434;2024-02-04T13:18:22;19.00;52.40
16901;DHT22;8567;52.540;6.434;2024-02-04T13:20:49;19.00;52.40
16901;DHT22;8567;52.540;6.434;2024-02-04T13:23:16;19.00;52.40
16901;DHT22;8567;52.540;6.434;2024-02-04T13:25:43;19.00;52.40
16901;DHT22;8567;52.540;6.434;2024-02-04T13:28:12;19.00;52.40
16901;DHT22;8567;52.540;6.434;2024-02-04T13:30:40;19.00;52.40
16901;DHT22;8567;52.540;6.434;2024-02-04T13:33:07;19.10;52.40
16901;DHT22;8567;52.540;6.434;2024-02-04T13:35:34;19.10;52.40
16901;DHT22;8567;52.540;6.434;2024-02-04T13:38:01;19.00;52.40
16901;DHT22;8567;52.540;6.434;2024-02-04T13:40:29;19.00;52.40
16901;DHT22;8567;52.540;6.434;2024-02-04T13:42:56;19.00;52.40
16901;DHT22;8567;52.540;6.434;2024-02-04T13:45:23;19.00;52.40
16901;DHT22;8567;52.540;6.434;2024-02-04T13:47:51;19.00;52.50
16901;DHT22;8567;52.540;6.434;2024-02-04T13:50:17;19.00;52.40
16901;DHT22;8567;52.540;6.434;2024-02-04T13:52:44;19.10;52.40
16901;DHT22;8567;52.540;6.434;2024-02-04T13:55:11;19.10;52.30
16901;DHT22;8567;52.540;6.434;2024-02-04T13:57:38;19.10;52.40
16901;DHT22;8567;52.540;6.434;2024-02-04T14:00:06;19.10;52.40
16901;DHT22;8567;52.540;6.434;2024-02-04T14:02:33;19.00;52.40
16901;DHT22;8567;52.540;6.434;2024-02-04T14:05:01;19.10;52.40
16901;DHT22;8567;52.540;6.434;2024-02-04T14:07:28;19.00;52.40
16901;DHT22;8567;52.540;6.434;2024-02-04T14:09:55;19.00;52.40
16901;DHT22;8567;52.540;6.434;2024-02-04T14:12:22;19.10;52.40
16901;DHT22;8567;52.540;6.434;2024-02-04T14:14:49;19.10;52.40
16901;DHT22;8567;52.540;6.434;2024-02-04T14:17:15;19.10;52.30
16901;DHT22;8567;52.540;6.434;2024-02-04T14:19:42;19.00;52.40
16901;DHT22;8567;52.540;6.434;2024-02-04T14:22:12;19.10;52.30
16901;DHT22;8567;52.540;6.434;2024-02-04T14:24:39;19.00;52.40
16901;DHT22;8567;52.540;6.434;2024-02-04T14:27:06;19.10;52.40
16901;DHT22;8567;52.540;6.434;2024-02-04T14:29:34;19.00;52.40
16901;DHT22;8567;52.540;6.434;2024-02-04T14:32:01;19.00;52.40
16901;DHT22;8567;52.540;6.434;2024-02-04T14:34:28;19.00;52.40
16901;DHT22;8567;52.540;6.434;2024-02-04T14:36:55;19.10;52.40
16901;DHT22;8567;52.540;6.434;2024-02-04T14:39:23;19.10;52.40
16901;DHT22;8567;52.540;6.434;2024-02-04T14:41:50;19.10;52.40
16901;DHT22;8567;52.540;6.434;2024-02-04T14:44:19;19.10;52.50
16901;DHT22;8567;52.540;6.434;2024-02-04T14:46:46;19.00;52.40
16901;DHT22;8567;52.540;6.434;2024-02-04T14:49:13;19.00;52.40
16901;DHT22;8567;52.540;6.434;2024-02-04T14:51:41;19.00;52.40
16901;DHT22;8567;52.540;6.434;2024-02-04T14:54:09;19.00;52.40
16901;DHT22;8567;52.540;6.434;2024-02-04T14:56:40;19.00;52.40
16901;DHT22;8567;52.540;6.434;2024-02-04T14:59:08;19.00;52.40
16901;DHT22;8567;52.540;6.434;2024-02-04T15:01:35;19.00;52.40
16901;DHT22;8567;52.540;6.434;2024-02-04T15:04:02;19.00;52.40
16901;DHT22;8567;52.540;6.434;2024-02-04T15:06:30;19.00;52.40
16901;DHT22;8567;52.540;6.434;2024-02-04T15:08:57;19.00;52.40
16901;DHT22;8567;52.540;6.434;2024-02-04T15:11:25;19.00;52.40
16901;DHT22;8567;52.540;6.434;2024-02-04T15:13:53;19.00;52.50
16901;DHT22;8567;52.540;6.434;2024-02-04T15:16:21;19.00;52.40
16901;DHT22;8567;52.540;6.434;2024-02-04T15:18:48;19.00;52.40
16901;DHT22;8567;52.540;6.434;2024-02-04T15:21:16;19.00;52.50
16901;DHT22;8567;52.540;6.434;2024-02-04T15:23:43;19.00;52.40
16901;DHT22;8567;52.540;6.434;2024-02-04T15:26:11;19.00;52.50
16901;DHT22;8567;52.540;6.434;2024-02-04T15:28:39;19.00;52.40
16901;DHT22;8567;52.540;6.434;2024-02-04T15:31:09;19.00;52.50
16901;DHT22;8567;52.540;6.434;2024-02-04T15:33:37;19.00;52.50
16901;DHT22;8567;52.540;6.434;2024-02-04T15:36:04;19.00;52.50
16901;DHT22;8567;52.540;6.434;2024-02-04T15:38:31;19.00;52.50
16901;DHT22;8567;52.540;6.434;2024-02-04T15:40:58;19.00;52.50
16901;DHT22;8567;52.540;6.434;2024-02-04T15:43:25;19.00;52.50
16901;DHT22;8567;52.540;6.434;2024-02-04T15:45:53;19.00;52.50
16901;DHT22;8567;52.540;6.434;2024-02-04T15:48:23;19.00;52.50